createdAt,value
2019-03-20T00:00:43.850Z,100.00
2019-03-20T00:03:13.613Z,100.00
2019-03-20T00:05:43.289Z,100.00
2019-03-20T00:08:13.119Z,100.00
2019-03-20T00:10:43.048Z,100.00
2019-03-20T00:13:12.720Z,100.00
2019-03-20T00:15:42.337Z,100.00
2019-03-20T00:18:12.469Z,100.00
2019-03-20T00:20:42.275Z,100.00
2019-03-20T00:23:12.102Z,100.00
2019-03-20T00:25:42.741Z,100.00
2019-03-20T00:28:12.523Z,100.00
2019-03-20T00:30:42.241Z,100.00
2019-03-20T00:33:12.112Z,100.00
2019-03-20T00:35:42.094Z,100.00
2019-03-20T00:38:11.960Z,100.00
2019-03-20T00:40:41.830Z,100.00
2019-03-20T00:43:11.847Z,100.00
2019-03-20T00:45:41.656Z,100.00
2019-03-20T00:48:11.558Z,100.00
2019-03-20T00:50:41.364Z,100.00
2019-03-20T00:53:12.106Z,100.00
2019-03-20T00:55:41.967Z,100.00
2019-03-20T00:58:11.894Z,100.00
2019-03-20T01:00:41.761Z,100.00
2019-03-20T01:03:11.680Z,100.00
2019-03-20T01:05:41.736Z,100.00
2019-03-20T01:08:11.413Z,100.00
2019-03-20T01:10:41.324Z,100.00
2019-03-20T01:13:11.192Z,100.00
2019-03-20T01:15:40.952Z,100.00
2019-03-20T01:18:10.670Z,100.00
2019-03-20T01:20:40.512Z,100.00
2019-03-20T01:23:10.517Z,100.00
2019-03-20T01:25:40.356Z,100.00
2019-03-20T01:28:10.230Z,100.00
2019-03-20T01:30:40.155Z,100.00
2019-03-20T01:33:11.137Z,100.00
2019-03-20T01:35:41.625Z,100.00
2019-03-20T01:38:11.525Z,99.50
2019-03-20T01:40:41.496Z,98.08
2019-03-20T01:43:11.262Z,98.26
2019-03-20T01:45:41.174Z,98.55
2019-03-20T01:48:10.936Z,99.40
2019-03-20T01:50:40.727Z,100.00
2019-03-20T01:53:10.936Z,100.00
2019-03-20T01:55:41.747Z,100.00
2019-03-20T01:58:11.485Z,100.00
2019-03-20T02:00:41.831Z,100.00
2019-03-20T02:03:11.737Z,100.00
2019-03-20T02:05:41.649Z,100.00
2019-03-20T02:08:11.594Z,100.00
2019-03-20T02:10:41.501Z,100.00
2019-03-20T02:13:11.287Z,100.00
2019-03-20T02:15:41.046Z,100.00
2019-03-20T02:18:10.935Z,100.00
2019-03-20T02:20:40.811Z,100.00
2019-03-20T02:23:10.667Z,100.00
2019-03-20T02:25:41.567Z,100.00
2019-03-20T02:28:11.244Z,100.00
2019-03-20T02:30:41.042Z,100.00
2019-03-20T02:33:10.956Z,100.00
2019-03-20T02:35:51.489Z,100.00
2019-03-20T02:38:12.524Z,100.00
2019-03-20T02:40:42.326Z,100.00
2019-03-20T02:43:12.284Z,100.00
2019-03-20T02:45:42.054Z,100.00
2019-03-20T02:48:11.966Z,100.00
2019-03-20T02:50:41.831Z,100.00
2019-03-20T02:53:11.715Z,100.00
2019-03-20T02:55:41.542Z,98.01
2019-03-20T02:58:11.220Z,94.50
2019-03-20T03:00:40.948Z,93.68
2019-03-20T03:03:10.814Z,91.91
2019-03-20T03:05:40.574Z,91.82
2019-03-20T03:08:10.397Z,91.57
2019-03-20T03:10:40.415Z,91.95
2019-03-20T03:13:10.125Z,91.98
2019-03-20T03:15:39.953Z,92.11
2019-03-20T03:18:10.330Z,92.37
2019-03-20T03:20:40.293Z,93.12
2019-03-20T03:23:10.415Z,93.94
2019-03-20T03:25:41.405Z,94.29
2019-03-20T03:28:11.173Z,94.20
2019-03-20T03:30:41.196Z,93.57
2019-03-20T03:33:11.042Z,93.28
2019-03-20T03:35:40.904Z,92.92
2019-03-20T03:38:10.810Z,92.78
2019-03-20T03:40:41.188Z,93.04
2019-03-20T03:43:10.882Z,93.41
2019-03-20T03:45:40.896Z,93.95
2019-03-20T03:48:10.728Z,93.85
2019-03-20T03:50:40.602Z,93.87
2019-03-20T03:53:10.333Z,93.95
2019-03-20T03:55:40.416Z,93.82
2019-03-20T03:58:10.543Z,93.92
2019-03-20T04:00:40.572Z,94.39
2019-03-20T04:03:10.404Z,94.73
2019-03-20T04:05:40.152Z,94.88
2019-03-20T04:08:09.927Z,94.71
2019-03-20T04:10:39.759Z,94.73
2019-03-20T04:13:10.767Z,95.59
2019-03-20T04:15:40.667Z,96.27
2019-03-20T04:18:11.743Z,95.55
2019-03-20T04:20:41.676Z,94.99
2019-03-20T04:23:11.463Z,94.46
2019-03-20T04:25:41.234Z,93.59
2019-03-20T04:28:11.202Z,93.65
2019-03-20T04:30:41.234Z,93.54
2019-03-20T04:33:11.105Z,93.50
2019-03-20T04:35:40.845Z,93.50
2019-03-20T04:38:10.450Z,93.34
2019-03-20T04:40:40.417Z,93.54
2019-03-20T04:43:10.281Z,93.75
2019-03-20T04:45:39.889Z,94.05
2019-03-20T04:48:09.775Z,94.85
2019-03-20T04:50:39.533Z,95.58
2019-03-20T04:53:09.362Z,96.01
2019-03-20T04:55:39.349Z,98.45
2019-03-20T04:58:09.067Z,100.00
2019-03-20T05:00:38.908Z,100.00
2019-03-20T05:03:08.857Z,100.00
2019-03-20T05:05:39.635Z,100.00
2019-03-20T05:08:09.496Z,100.00
2019-03-20T05:10:39.313Z,100.00
2019-03-20T05:13:09.394Z,100.00
2019-03-20T05:15:39.279Z,100.00
2019-03-20T05:18:08.923Z,100.00
2019-03-20T05:20:39.082Z,100.00
2019-03-20T05:23:08.988Z,100.00
2019-03-20T05:25:38.872Z,100.00
2019-03-20T05:28:10.256Z,100.00
2019-03-20T05:30:40.202Z,100.00
2019-03-20T05:33:10.050Z,100.00
2019-03-20T05:35:39.663Z,100.00
2019-03-20T05:38:09.657Z,100.00
2019-03-20T05:40:39.633Z,100.00
2019-03-20T05:43:09.541Z,100.00
2019-03-20T05:45:39.484Z,100.00
2019-03-20T05:48:09.429Z,100.00
2019-03-20T05:50:39.335Z,100.00
2019-03-20T05:53:09.191Z,100.00
2019-03-20T05:55:38.999Z,100.00
2019-03-20T05:58:08.775Z,100.00
2019-03-20T06:00:38.527Z,100.00
2019-03-20T06:03:08.629Z,100.00
2019-03-20T06:05:38.408Z,100.00
2019-03-20T06:08:09.221Z,100.00
2019-03-20T06:10:38.921Z,100.00
2019-03-20T06:13:08.790Z,100.00
2019-03-20T06:15:38.544Z,100.00
2019-03-20T06:18:08.379Z,100.00
2019-03-20T06:20:38.345Z,100.00
2019-03-20T06:23:08.085Z,100.00
2019-03-20T06:25:37.916Z,100.00
2019-03-20T06:28:07.657Z,100.00
2019-03-20T06:30:37.435Z,100.00
2019-03-20T06:33:07.310Z,100.00
2019-03-20T06:35:37.221Z,100.00
2019-03-20T06:38:07.080Z,100.00
2019-03-20T06:40:36.792Z,100.00
2019-03-20T06:43:06.650Z,100.00
2019-03-20T06:45:36.538Z,100.00
2019-03-20T06:48:06.505Z,100.00
2019-03-20T06:50:36.273Z,100.00
2019-03-20T06:53:06.191Z,100.00
2019-03-20T06:55:36.143Z,100.00
2019-03-20T06:58:05.799Z,100.00
2019-03-20T07:01:03.893Z,100.00
2019-03-20T07:03:40.364Z,100.00
2019-03-20T07:06:20.567Z,100.00
2019-03-20T07:09:00.614Z,100.00
2019-03-20T07:11:28.395Z,100.00
2019-03-20T07:13:58.184Z,100.00
2019-03-20T07:16:27.953Z,100.00
2019-03-20T07:18:57.773Z,100.00
2019-03-20T07:21:28.690Z,100.00
2019-03-20T07:23:58.591Z,100.00
2019-03-20T07:26:28.768Z,100.00
2019-03-20T07:28:58.615Z,100.00
2019-03-20T07:31:28.370Z,100.00
2019-03-20T07:33:58.184Z,100.00
2019-03-20T07:36:27.922Z,100.00
2019-03-20T07:38:57.627Z,100.00
2019-03-20T07:41:28.663Z,100.00
2019-03-20T07:43:58.464Z,100.00
2019-03-20T07:46:28.303Z,100.00
2019-03-20T07:48:58.270Z,100.00
2019-03-20T07:51:28.113Z,100.00
2019-03-20T07:53:57.829Z,100.00
2019-03-20T07:56:27.607Z,100.00
2019-03-20T07:58:57.351Z,100.00
2019-03-20T08:01:27.186Z,100.00
2019-03-20T08:03:57.080Z,100.00
2019-03-20T08:06:28.132Z,100.00
2019-03-20T08:08:58.009Z,100.00
2019-03-20T08:11:27.888Z,100.00
2019-03-20T08:13:57.794Z,100.00
2019-03-20T08:16:27.743Z,100.00
2019-03-20T08:18:57.620Z,100.00
2019-03-20T08:21:28.770Z,100.00
2019-03-20T08:23:58.567Z,100.00
2019-03-20T08:26:28.394Z,100.00
2019-03-20T08:28:58.342Z,100.00
2019-03-20T08:31:28.226Z,100.00
2019-03-20T08:33:58.135Z,100.00
2019-03-20T08:36:28.112Z,100.00
2019-03-20T08:38:57.971Z,100.00
2019-03-20T08:41:27.888Z,100.00
2019-03-20T08:43:57.852Z,100.00
2019-03-20T08:46:27.721Z,100.00
2019-03-20T08:48:57.530Z,100.00
2019-03-20T08:51:28.523Z,100.00
2019-03-20T08:53:58.394Z,100.00
2019-03-20T08:56:28.108Z,100.00
2019-03-20T08:58:59.161Z,100.00
2019-03-20T09:01:29.222Z,100.00
2019-03-20T09:03:58.973Z,99.05
2019-03-20T09:06:28.646Z,97.88
2019-03-20T09:08:59.673Z,96.20
2019-03-20T09:11:29.551Z,95.34
2019-03-20T09:13:59.503Z,95.56
2019-03-20T09:16:29.280Z,94.73
2019-03-20T09:18:58.995Z,95.50
2019-03-20T09:21:28.755Z,94.88
2019-03-20T09:23:58.516Z,93.29
2019-03-20T09:26:29.465Z,92.18
2019-03-20T09:28:59.322Z,95.81
2019-03-20T09:31:28.991Z,98.06
2019-03-20T09:33:58.918Z,95.10
2019-03-20T09:36:29.699Z,94.22
2019-03-20T09:38:59.470Z,95.64
2019-03-20T09:41:29.372Z,94.13
2019-03-20T09:43:59.240Z,92.97
2019-03-20T09:46:28.891Z,93.48
2019-03-20T09:48:58.809Z,94.48
2019-03-20T09:51:28.636Z,95.97
2019-03-20T09:53:58.692Z,95.37
2019-03-20T09:56:28.559Z,93.95
2019-03-20T09:58:58.267Z,95.07
2019-03-20T10:01:28.026Z,93.12
2019-03-20T10:03:57.818Z,93.09
2019-03-20T10:06:27.620Z,92.80
2019-03-20T10:08:59.140Z,92.52
2019-03-20T10:11:30.268Z,95.38
2019-03-20T10:14:00.064Z,95.67
2019-03-20T10:16:31.142Z,96.75
2019-03-20T10:19:00.820Z,97.11
2019-03-20T10:21:30.642Z,96.85
2019-03-20T10:24:00.415Z,97.12
2019-03-20T10:26:30.231Z,98.33
2019-03-20T10:28:59.983Z,97.51
2019-03-20T10:31:29.755Z,97.49
2019-03-20T10:33:59.902Z,96.87
2019-03-20T10:36:29.936Z,97.39
2019-03-20T10:39:06.331Z,96.86
2019-03-20T10:41:31.284Z,97.37
2019-03-20T10:44:01.450Z,98.34
2019-03-20T10:46:31.201Z,97.27
2019-03-20T10:49:01.035Z,98.10
2019-03-20T10:51:31.172Z,97.57
2019-03-20T10:54:01.194Z,96.98
2019-03-20T10:56:30.971Z,97.67
2019-03-20T10:59:00.995Z,98.07
2019-03-20T11:01:41.867Z,97.52
2019-03-20T11:04:02.375Z,96.48
2019-03-20T11:06:32.276Z,97.25
2019-03-20T11:09:02.138Z,96.07
2019-03-20T11:11:31.713Z,94.26
2019-03-20T11:14:01.609Z,92.31
2019-03-20T11:16:31.689Z,91.37
2019-03-20T11:19:02.709Z,90.38
2019-03-20T11:21:32.495Z,91.45
2019-03-20T11:24:02.301Z,91.27
2019-03-20T11:26:32.186Z,90.39
2019-03-20T11:29:01.837Z,89.64
2019-03-20T11:31:31.547Z,88.52
2019-03-20T11:34:02.623Z,87.60
2019-03-20T11:36:32.423Z,85.80
2019-03-20T11:39:02.110Z,84.00
2019-03-20T11:41:33.089Z,82.62
2019-03-20T11:44:02.990Z,81.86
2019-03-20T11:46:32.906Z,80.69
2019-03-20T11:49:02.746Z,79.87
2019-03-20T11:51:32.609Z,79.22
2019-03-20T11:54:02.426Z,78.22
2019-03-20T11:56:32.192Z,76.59
2019-03-20T11:59:01.975Z,74.03
2019-03-20T12:01:31.943Z,74.36
2019-03-20T12:04:01.817Z,72.66
2019-03-20T12:06:31.736Z,70.09
2019-03-20T12:09:01.726Z,68.93
2019-03-20T12:11:31.562Z,68.63
2019-03-20T12:14:01.478Z,67.20
2019-03-20T12:16:31.439Z,68.47
2019-03-20T12:19:01.293Z,69.76
2019-03-20T12:21:31.104Z,67.30
2019-03-20T12:24:00.960Z,64.92
2019-03-20T12:26:30.730Z,64.20
2019-03-20T12:29:00.442Z,64.35
2019-03-20T12:31:31.624Z,62.65
2019-03-20T12:34:02.356Z,59.57
2019-03-20T12:36:32.146Z,59.18
2019-03-20T12:39:02.106Z,57.22
2019-03-20T12:41:31.973Z,58.29
2019-03-20T12:44:01.995Z,58.16
2019-03-20T12:46:41.466Z,58.44
2019-03-20T12:49:03.257Z,58.47
2019-03-20T12:51:32.975Z,57.70
2019-03-20T12:54:02.965Z,58.65
2019-03-20T12:56:32.759Z,59.61
2019-03-20T12:59:02.853Z,61.58
2019-03-20T13:01:32.868Z,61.10
2019-03-20T13:04:02.720Z,59.93
2019-03-20T13:06:32.575Z,59.67
2019-03-20T13:09:04.485Z,59.68
2019-03-20T13:11:34.201Z,59.00
2019-03-20T13:14:04.087Z,58.28
2019-03-20T13:16:33.879Z,58.61
2019-03-20T13:19:03.733Z,58.71
2019-03-20T13:21:33.404Z,59.15
2019-03-20T13:24:03.249Z,58.75
2019-03-20T13:26:33.219Z,54.69
2019-03-20T13:29:03.176Z,52.74
2019-03-20T13:31:33.097Z,51.51
2019-03-20T13:34:03.063Z,52.80
2019-03-20T13:36:32.816Z,53.24
2019-03-20T13:39:03.427Z,50.75
2019-03-20T13:41:33.195Z,49.39
2019-03-20T13:44:02.866Z,48.58
2019-03-20T13:46:32.777Z,49.68
2019-03-20T13:49:02.568Z,50.88
2019-03-20T13:51:32.407Z,50.00
2019-03-20T13:54:02.226Z,47.38
2019-03-20T13:56:32.179Z,45.07
2019-03-20T13:59:01.848Z,44.54
2019-03-20T14:01:31.458Z,46.13
2019-03-20T14:04:01.350Z,47.20
2019-03-20T14:06:31.220Z,46.21
2019-03-20T14:09:01.140Z,44.95
2019-03-20T14:11:31.093Z,44.95
2019-03-20T14:14:00.836Z,45.83
2019-03-20T14:16:30.558Z,44.65
2019-03-20T14:19:00.548Z,43.15
2019-03-20T14:21:30.614Z,44.95
2019-03-20T14:24:00.401Z,46.93
2019-03-20T14:26:30.061Z,50.81
2019-03-20T14:28:59.829Z,51.23
2019-03-20T14:31:29.773Z,52.59
2019-03-20T14:33:59.703Z,53.49
2019-03-20T14:36:29.601Z,53.41
2019-03-20T14:39:00.771Z,54.29
2019-03-20T14:41:30.640Z,54.98
2019-03-20T14:44:00.468Z,55.74
2019-03-20T14:46:30.223Z,57.51
2019-03-20T14:49:00.082Z,59.90
2019-03-20T14:51:29.936Z,62.43
2019-03-20T14:53:59.839Z,64.30
2019-03-20T14:56:29.753Z,66.29
2019-03-20T14:58:59.801Z,67.39
2019-03-20T15:01:29.561Z,68.42
2019-03-20T15:03:59.324Z,69.53
2019-03-20T15:06:29.094Z,69.55
2019-03-20T15:08:58.882Z,71.51
2019-03-20T15:11:28.744Z,72.16
2019-03-20T15:13:58.555Z,73.20
2019-03-20T15:16:28.484Z,72.92
2019-03-20T15:18:58.432Z,71.57
2019-03-20T15:21:28.282Z,68.79
2019-03-20T15:23:57.894Z,65.82
2019-03-20T15:26:27.743Z,64.59
2019-03-20T15:28:57.620Z,63.35
2019-03-20T15:31:27.441Z,63.52
2019-03-20T15:33:57.207Z,64.34
2019-03-20T15:36:26.920Z,64.45
2019-03-20T15:38:56.702Z,63.62
2019-03-20T15:41:26.619Z,62.94
2019-03-20T15:44:02.388Z,62.76
2019-03-20T15:46:28.194Z,62.96
2019-03-20T15:48:58.005Z,62.26
2019-03-20T15:51:27.746Z,62.17
2019-03-20T15:53:57.621Z,62.05
2019-03-20T15:56:27.538Z,61.63
2019-03-20T15:58:57.352Z,62.05
2019-03-20T16:01:27.228Z,63.73
2019-03-20T16:03:57.081Z,65.26
2019-03-20T16:06:26.953Z,67.03
2019-03-20T16:08:57.006Z,67.73
2019-03-20T16:11:26.733Z,67.79
2019-03-20T16:13:56.585Z,67.38
2019-03-20T16:16:26.350Z,67.25
2019-03-20T16:18:56.176Z,66.16
2019-03-20T16:21:27.331Z,67.26
2019-03-20T16:23:57.254Z,66.64
2019-03-20T16:26:27.143Z,66.80
2019-03-20T16:28:56.810Z,65.83
2019-03-20T16:31:26.696Z,64.88
2019-03-20T16:33:56.585Z,64.00
2019-03-20T16:36:26.315Z,63.99
2019-03-20T16:38:56.122Z,63.60
2019-03-20T16:41:27.180Z,63.68
2019-03-20T16:43:57.028Z,64.39
2019-03-20T16:46:26.796Z,65.00
2019-03-20T16:48:56.756Z,65.18
2019-03-20T16:51:26.515Z,65.39
2019-03-20T16:53:56.240Z,65.21
2019-03-20T16:56:26.388Z,65.61
2019-03-20T16:58:56.264Z,65.74
2019-03-20T17:01:26.307Z,65.78
2019-03-20T17:03:56.196Z,65.99
2019-03-20T17:06:25.961Z,65.49
2019-03-20T17:08:55.798Z,64.60
2019-03-20T17:11:34.485Z,63.97
2019-03-20T17:13:56.997Z,63.76
2019-03-20T17:16:26.776Z,63.78
2019-03-20T17:18:56.521Z,63.54
2019-03-20T17:21:26.366Z,63.89
2019-03-20T17:23:56.648Z,64.98
2019-03-20T17:26:26.500Z,66.96
2019-03-20T17:28:56.289Z,68.44
2019-03-20T17:31:27.180Z,69.84
2019-03-20T17:33:56.955Z,70.81
2019-03-20T17:36:26.769Z,71.02
2019-03-20T17:38:56.639Z,71.16
2019-03-20T17:41:36.287Z,71.64
2019-03-20T17:43:58.992Z,71.97
2019-03-20T17:46:28.882Z,72.24
2019-03-20T17:48:58.598Z,72.69
2019-03-20T17:51:28.873Z,72.71
2019-03-20T17:53:58.635Z,72.71
2019-03-20T17:56:28.536Z,73.85
2019-03-20T17:58:58.159Z,76.44
2019-03-20T18:01:28.216Z,77.71
2019-03-20T18:03:58.160Z,78.10
2019-03-20T18:06:28.219Z,77.04
2019-03-20T18:08:58.046Z,78.76
2019-03-20T18:11:28.040Z,77.75
2019-03-20T18:13:57.893Z,79.62
2019-03-20T18:16:27.872Z,79.34
2019-03-20T18:18:57.650Z,73.57
2019-03-20T18:21:27.505Z,73.87
2019-03-20T18:23:57.461Z,76.50
2019-03-20T18:26:27.192Z,77.19
2019-03-20T18:28:56.956Z,78.49
2019-03-20T18:31:26.845Z,78.74
2019-03-20T18:33:56.725Z,79.03
2019-03-20T18:36:26.635Z,76.13
2019-03-20T18:38:56.473Z,76.54
2019-03-20T18:41:26.258Z,77.28
2019-03-20T18:43:56.178Z,76.97
2019-03-20T18:46:26.128Z,76.46
2019-03-20T18:48:56.110Z,76.57
2019-03-20T18:51:26.014Z,76.48
2019-03-20T18:53:56.035Z,76.58
2019-03-20T18:56:25.865Z,76.02
2019-03-20T18:58:55.582Z,76.25
2019-03-20T19:01:26.852Z,76.88
2019-03-20T19:03:56.618Z,76.95
2019-03-20T19:06:27.758Z,77.60
2019-03-20T19:08:57.479Z,77.64
2019-03-20T19:11:27.450Z,76.58
2019-03-20T19:13:57.312Z,76.48
2019-03-20T19:16:28.609Z,77.09
2019-03-20T19:19:18.477Z,75.94
2019-03-20T19:21:48.515Z,74.78
2019-03-20T19:24:18.715Z,75.12
2019-03-20T19:26:50.774Z,75.66
2019-03-20T19:29:44.866Z,75.63
2019-03-20T19:32:14.932Z,75.45
2019-03-20T19:34:45.333Z,72.21
2019-03-20T19:37:15.107Z,71.46
2019-03-20T19:39:45.029Z,73.06
2019-03-20T19:42:19.922Z,71.34
2019-03-20T19:44:46.621Z,63.74
2019-03-20T19:47:16.632Z,67.92
2019-03-20T19:49:47.617Z,66.30
2019-03-20T19:52:17.406Z,62.62
2019-03-20T19:54:47.179Z,64.50
2019-03-20T19:57:18.457Z,63.90
2019-03-20T19:59:48.163Z,62.76
2019-03-20T20:02:18.176Z,64.58
2019-03-20T20:04:48.255Z,65.45
2019-03-20T20:07:18.329Z,68.42
2019-03-20T20:09:48.314Z,68.72
2019-03-20T20:12:19.209Z,68.15
2019-03-20T20:14:49.134Z,64.42
2019-03-20T20:17:18.898Z,57.88
2019-03-20T20:19:49.979Z,57.53
2019-03-20T20:22:19.977Z,58.76
2019-03-20T20:24:49.891Z,58.74
2019-03-20T20:27:19.842Z,57.88
2019-03-20T20:29:49.712Z,57.88
2019-03-20T20:32:19.542Z,55.99
2019-03-20T20:34:49.319Z,55.71
2019-03-20T20:37:19.395Z,54.48
2019-03-20T20:39:49.359Z,54.65
2019-03-20T20:42:20.358Z,56.29
2019-03-20T20:44:50.226Z,55.89
2019-03-20T20:47:19.948Z,53.62
2019-03-20T20:49:49.963Z,52.48
2019-03-20T20:52:21.108Z,53.42
2019-03-20T20:54:51.167Z,59.66
2019-03-20T20:57:22.392Z,58.44
2019-03-20T20:59:53.510Z,58.89
2019-03-20T21:02:23.341Z,58.01
2019-03-20T21:04:53.228Z,57.06
2019-03-20T21:07:23.256Z,61.74
2019-03-20T21:09:53.012Z,59.67
2019-03-20T21:12:22.806Z,57.76
2019-03-20T21:14:52.778Z,55.47
2019-03-20T21:17:30.043Z,55.03
2019-03-20T21:20:00.502Z,54.85
2019-03-20T21:23:29.139Z,54.27
2019-03-20T21:26:00.568Z,54.31
2019-03-20T21:29:15.798Z,54.36
2019-03-20T21:32:03.674Z,54.49
2019-03-20T21:35:17.050Z,55.08
2019-03-20T21:38:08.468Z,54.60
2019-03-20T21:41:27.670Z,55.43
2019-03-20T21:44:44.112Z,56.16
2019-03-20T21:47:34.321Z,56.90
2019-03-20T21:50:46.548Z,57.38
2019-03-20T21:53:20.456Z,56.47
2019-03-20T21:56:27.301Z,54.77
2019-03-20T21:59:10.632Z,56.07
2019-03-20T22:02:00.928Z,58.19
2019-03-20T22:04:32.400Z,58.88
2019-03-20T22:07:06.545Z,59.26
2019-03-20T22:10:16.655Z,59.90
2019-03-20T22:13:03.062Z,60.82
2019-03-20T22:16:04.993Z,61.83
2019-03-20T22:19:09.904Z,62.82
2019-03-20T22:22:17.260Z,63.46
2019-03-20T22:25:26.129Z,61.24
2019-03-20T22:28:20.009Z,64.25
2019-03-20T22:30:50.312Z,63.05
2019-03-20T22:33:55.690Z,64.72
2019-03-20T22:36:30.244Z,67.08
2019-03-20T22:39:36.488Z,69.05
2019-03-20T22:42:30.819Z,69.36
2019-03-20T22:45:31.755Z,70.25
2019-03-20T22:48:38.804Z,71.63
2019-03-20T22:51:38.212Z,73.17
2019-03-20T22:55:02.400Z,73.62
2019-03-20T22:57:53.617Z,73.74
2019-03-20T23:00:25.295Z,72.60
2019-03-20T23:03:15.743Z,70.70
2019-03-20T23:05:45.985Z,71.41
2019-03-20T23:08:16.534Z,71.79
2019-03-20T23:10:48.536Z,72.72
2019-03-20T23:13:19.465Z,73.28
2019-03-20T23:15:50.275Z,73.47
2019-03-20T23:18:20.693Z,74.87
2019-03-20T23:20:50.990Z,75.83
2019-03-20T23:23:21.334Z,74.44
2019-03-20T23:25:52.264Z,74.72
2019-03-20T23:28:23.079Z,75.83
2019-03-20T23:30:53.506Z,76.63
2019-03-20T23:33:23.820Z,76.71
2019-03-20T23:35:54.123Z,77.16
2019-03-20T23:38:24.386Z,76.90
2019-03-20T23:40:54.700Z,76.33
2019-03-20T23:43:24.934Z,75.55
2019-03-20T23:45:55.295Z,75.50
2019-03-20T23:48:41.812Z,75.25
2019-03-20T23:51:14.511Z,75.38
2019-03-20T23:53:48.518Z,76.17
2019-03-20T23:56:18.822Z,77.55
2019-03-20T23:58:49.030Z,77.65
